createdAt,value
2022-08-23T00:02:30.377Z,21.50
2022-08-23T00:07:38.450Z,21.50
2022-08-23T00:12:43.948Z,21.40
2022-08-23T00:17:47.958Z,21.40
2022-08-23T00:22:53.379Z,21.40
2022-08-23T00:27:57.219Z,21.30
2022-08-23T00:33:01.915Z,21.30
2022-08-23T00:38:34.012Z,21.30
2022-08-23T00:43:52.997Z,21.20
2022-08-23T00:48:58.360Z,21.20
2022-08-23T00:54:05.124Z,21.10
2022-08-23T00:59:10.647Z,21.10
2022-08-23T01:04:15.919Z,21.10
2022-08-23T01:09:22.692Z,21.10
2022-08-23T01:14:27.920Z,21.10
2022-08-23T01:19:36.483Z,21.00
2022-08-23T01:25:08.200Z,21.00
2022-08-23T01:30:10.224Z,21.00
2022-08-23T01:35:14.383Z,21.00
2022-08-23T01:40:20.004Z,20.90
2022-08-23T01:45:24.200Z,20.90
2022-08-23T01:50:30.404Z,20.90
2022-08-23T01:55:36.491Z,20.90
2022-08-23T02:00:43.018Z,20.80
2022-08-23T02:05:50.070Z,20.90
2022-08-23T02:10:55.676Z,20.90
2022-08-23T02:16:01.735Z,20.90
2022-08-23T02:26:17.515Z,20.80
2022-08-23T02:31:23.221Z,20.80
2022-08-23T02:36:29.835Z,20.80
2022-08-23T02:41:37.859Z,20.80
2022-08-23T02:46:45.516Z,20.80
2022-08-23T02:51:50.933Z,20.70
2022-08-23T02:56:56.415Z,20.70
2022-08-23T03:02:00.604Z,20.70
2022-08-23T03:07:09.686Z,20.70
2022-08-23T03:12:16.447Z,20.70
2022-08-23T03:17:25.807Z,20.70
2022-08-23T03:22:29.724Z,20.70
2022-08-23T03:27:38.357Z,20.70
2022-08-23T03:32:49.261Z,20.70
2022-08-23T03:37:55.347Z,20.70
2022-08-23T03:43:02.450Z,20.60
2022-08-23T03:48:07.594Z,20.70
2022-08-23T03:53:13.176Z,20.70
2022-08-23T03:58:21.671Z,20.70
2022-08-23T04:03:25.741Z,20.70
2022-08-23T04:08:48.147Z,20.70
2022-08-23T04:13:53.521Z,20.70
2022-08-23T04:18:57.842Z,20.70
2022-08-23T04:24:04.892Z,20.60
2022-08-23T04:29:11.692Z,20.70
2022-08-23T04:34:29.107Z,20.60
2022-08-23T04:39:54.053Z,20.60
2022-08-23T04:45:01.784Z,20.60
2022-08-23T04:50:06.839Z,20.70
2022-08-23T04:55:10.973Z,20.70
2022-08-23T05:00:30.105Z,20.70
2022-08-23T05:05:35.089Z,20.70
2022-08-23T05:10:40.146Z,20.70
2022-08-23T05:15:45.777Z,20.70
2022-08-23T05:20:50.061Z,20.70
2022-08-23T05:25:57.184Z,20.70
2022-08-23T05:31:11.976Z,20.70
2022-08-23T05:36:23.349Z,20.70
2022-08-23T05:41:33.402Z,20.70
2022-08-23T05:46:46.340Z,20.70
2022-08-23T05:51:59.246Z,20.70
2022-08-23T05:57:07.603Z,20.70
2022-08-23T06:02:12.766Z,20.70
2022-08-23T06:07:16.784Z,20.70
2022-08-23T06:12:20.472Z,20.60
2022-08-23T06:17:27.291Z,20.60
2022-08-23T06:22:31.541Z,20.60
2022-08-23T06:27:35.376Z,20.60
2022-08-23T06:32:40.849Z,20.60
2022-08-23T06:38:04.076Z,20.60
2022-08-23T06:43:25.885Z,20.60
2022-08-23T06:48:46.686Z,20.60
2022-08-23T06:53:50.935Z,20.60
2022-08-23T06:59:27.197Z,20.70
2022-08-23T07:04:58.293Z,20.70
2022-08-23T07:10:15.951Z,20.80
2022-08-23T07:15:20.806Z,20.80
2022-08-23T07:20:26.409Z,20.90
2022-08-23T07:25:30.423Z,21.00
2022-08-23T07:30:41.062Z,21.00
2022-08-23T07:35:51.574Z,21.10
2022-08-23T07:40:57.116Z,21.20
2022-08-23T07:46:04.240Z,21.30
2022-08-23T07:51:13.313Z,21.40
2022-08-23T07:56:19.373Z,21.50
2022-08-23T08:01:46.465Z,21.50
2022-08-23T08:07:17.173Z,21.60
2022-08-23T08:12:21.010Z,21.70
2022-08-23T08:17:27.813Z,21.80
2022-08-23T08:23:05.699Z,21.90
2022-08-23T08:28:28.134Z,22.10
2022-08-23T08:33:34.326Z,22.20
2022-08-23T08:38:48.167Z,22.30
2022-08-23T08:44:04.534Z,22.40
2022-08-23T08:49:13.456Z,22.60
2022-08-23T08:54:23.456Z,22.70
2022-08-23T08:59:33.623Z,22.80
2022-08-23T09:04:39.000Z,23.00
2022-08-23T09:10:08.699Z,23.20
2022-08-23T09:15:26.046Z,23.40
2022-08-23T09:20:34.853Z,23.70
2022-08-23T09:25:41.963Z,24.10
2022-08-23T09:30:55.158Z,24.50
2022-08-23T09:36:08.639Z,24.90
2022-08-23T09:41:23.520Z,25.30
2022-08-23T09:46:33.371Z,25.70
2022-08-23T09:51:41.587Z,26.10
2022-08-23T09:56:57.544Z,26.50
2022-08-23T10:02:02.941Z,26.80
2022-08-23T10:07:25.458Z,27.10
2022-08-23T10:12:33.046Z,27.40
2022-08-23T10:17:43.949Z,27.70
2022-08-23T10:22:57.111Z,28.00
2022-08-23T10:28:31.359Z,28.20
2022-08-23T10:33:47.747Z,28.40
2022-08-23T10:38:57.951Z,28.30
2022-08-23T10:44:21.215Z,28.00
2022-08-23T10:49:26.611Z,27.80
2022-08-23T10:54:38.580Z,27.60
2022-08-23T10:59:47.957Z,27.40
2022-08-23T11:04:57.666Z,27.20
2022-08-23T11:10:16.822Z,27.10
2022-08-23T11:15:44.545Z,27.00
2022-08-23T11:21:10.805Z,27.00
2022-08-23T11:27:06.288Z,27.00
2022-08-23T11:32:29.995Z,27.00
2022-08-23T11:38:05.147Z,27.00
2022-08-23T11:43:31.654Z,27.00
2022-08-23T11:48:43.823Z,27.00
2022-08-23T11:54:23.143Z,27.10
2022-08-23T11:59:45.866Z,27.00
2022-08-23T12:04:55.606Z,27.00
2022-08-23T12:09:59.408Z,27.00
2022-08-23T12:15:06.939Z,27.00
2022-08-23T12:20:22.131Z,27.10
2022-08-23T12:25:30.372Z,27.10
2022-08-23T12:30:42.905Z,27.10
2022-08-23T12:35:55.982Z,27.20
2022-08-23T12:41:00.197Z,27.20
2022-08-23T12:46:04.284Z,27.10
2022-08-23T12:51:14.084Z,27.10
2022-08-23T12:56:21.071Z,27.00
2022-08-23T13:01:35.847Z,26.90
2022-08-23T13:06:45.593Z,26.90
2022-08-23T13:11:49.968Z,26.90
2022-08-23T13:16:53.745Z,26.90
2022-08-23T13:22:22.181Z,26.90
2022-08-23T13:27:29.070Z,27.00
2022-08-23T13:32:43.029Z,27.00
2022-08-23T13:37:48.405Z,27.00
2022-08-23T13:42:56.949Z,26.90
2022-08-23T13:48:04.535Z,26.90
2022-08-23T13:53:17.497Z,26.90
2022-08-23T13:58:29.117Z,26.90
2022-08-23T14:03:32.980Z,26.90
2022-08-23T14:08:40.077Z,26.90
2022-08-23T14:13:47.087Z,26.90
2022-08-23T14:24:16.158Z,27.00
2022-08-23T14:29:19.982Z,27.00
2022-08-23T14:34:27.754Z,27.00
2022-08-23T14:39:32.928Z,27.00
2022-08-23T14:44:36.902Z,27.00
2022-08-23T14:49:40.788Z,27.00
2022-08-23T14:54:45.888Z,27.00
2022-08-23T14:59:50.172Z,27.00
2022-08-23T15:04:54.014Z,27.00
2022-08-23T15:09:59.130Z,27.00
2022-08-23T15:15:03.027Z,27.00
2022-08-23T15:20:08.033Z,27.00
2022-08-23T15:25:13.928Z,27.10
2022-08-23T15:30:18.271Z,27.00
2022-08-23T15:35:22.405Z,27.00
2022-08-23T15:40:27.574Z,27.00
2022-08-23T15:45:32.241Z,27.00
2022-08-23T15:50:36.064Z,26.90
2022-08-23T15:55:43.328Z,26.90
2022-08-23T16:00:48.085Z,26.90
2022-08-23T16:05:54.793Z,26.90
2022-08-23T16:11:01.906Z,27.00
2022-08-23T16:16:06.120Z,26.90
2022-08-23T16:21:09.932Z,26.90
2022-08-23T16:26:17.866Z,26.90
2022-08-23T16:31:38.536Z,26.90
2022-08-23T16:36:45.857Z,26.90
2022-08-23T16:41:51.384Z,26.90
2022-08-23T16:46:56.021Z,26.90
2022-08-23T16:52:00.511Z,26.80
2022-08-23T16:57:06.010Z,26.80
2022-08-23T17:02:20.739Z,26.80
2022-08-23T17:07:24.902Z,26.80
2022-08-23T17:12:31.315Z,26.80
2022-08-23T17:17:35.682Z,26.70
2022-08-23T17:22:39.536Z,26.70
2022-08-23T17:27:50.420Z,26.70
2022-08-23T17:32:54.482Z,26.60
2022-08-23T17:37:58.309Z,26.60
2022-08-23T17:43:05.694Z,26.60
2022-08-23T17:48:09.284Z,26.50
2022-08-23T17:53:14.420Z,26.50
2022-08-23T17:58:20.001Z,26.50
2022-08-23T18:03:23.677Z,26.40
2022-08-23T18:08:27.554Z,26.40
2022-08-23T18:13:32.795Z,26.40
2022-08-23T18:18:36.695Z,26.30
2022-08-23T18:23:40.696Z,26.30
2022-08-23T18:28:45.731Z,26.20
2022-08-23T18:33:49.478Z,26.20
2022-08-23T18:38:53.296Z,26.10
2022-08-23T18:43:58.753Z,26.10
2022-08-23T18:49:02.619Z,26.10
2022-08-23T18:54:06.794Z,26.00
2022-08-23T18:59:12.942Z,25.90
2022-08-23T19:04:17.134Z,25.80
2022-08-23T19:09:21.067Z,25.80
2022-08-23T19:14:26.204Z,25.70
2022-08-23T19:19:30.072Z,25.70
2022-08-23T19:24:33.888Z,25.60
2022-08-23T19:29:39.122Z,25.60
2022-08-23T19:34:43.242Z,25.50
2022-08-23T19:39:46.964Z,25.50
2022-08-23T19:44:52.191Z,25.40
2022-08-23T19:49:56.488Z,25.40
2022-08-23T19:55:05.544Z,25.30
2022-08-23T20:00:19.414Z,25.30
2022-08-23T20:05:23.958Z,25.20
2022-08-23T20:10:27.920Z,25.20
2022-08-23T20:15:33.285Z,25.10
2022-08-23T20:20:36.947Z,25.10
2022-08-23T20:25:40.714Z,25.00
2022-08-23T20:30:45.822Z,25.00
2022-08-23T20:35:49.719Z,25.00
2022-08-23T20:40:53.569Z,24.90
2022-08-23T20:52:24.886Z,24.80
2022-08-23T20:57:31.963Z,24.80
2022-08-23T21:02:42.369Z,24.70
2022-08-23T21:07:47.506Z,24.70
2022-08-23T21:12:51.416Z,24.60
2022-08-23T21:17:55.093Z,24.60
2022-08-23T21:23:00.363Z,24.60
2022-08-23T21:28:04.752Z,24.50
2022-08-23T21:33:08.627Z,24.50
2022-08-23T21:38:13.917Z,24.40
2022-08-23T21:43:23.232Z,24.40
2022-08-23T21:48:27.009Z,24.40
2022-08-23T21:53:32.144Z,24.30
2022-08-23T21:58:35.898Z,24.30
2022-08-23T22:03:39.777Z,24.20
2022-08-23T22:08:46.012Z,24.20
2022-08-23T22:13:49.646Z,24.10
2022-08-23T22:18:53.857Z,24.10
2022-08-23T22:23:59.437Z,24.10
2022-08-23T22:29:03.253Z,24.00
2022-08-23T22:34:11.596Z,24.00
2022-08-23T22:39:17.569Z,24.00
2022-08-23T22:44:21.324Z,23.90
2022-08-23T22:49:26.268Z,23.90
2022-08-23T22:54:31.548Z,23.90
2022-08-23T22:59:35.305Z,23.90
2022-08-23T23:04:39.516Z,23.80
2022-08-23T23:09:44.869Z,23.80
2022-08-23T23:14:48.752Z,23.80
2022-08-23T23:20:09.963Z,23.70
2022-08-23T23:25:15.190Z,23.70
2022-08-23T23:30:19.153Z,23.70
2022-08-23T23:35:23.715Z,23.70
2022-08-23T23:40:29.625Z,23.60
2022-08-23T23:45:33.402Z,23.60
2022-08-23T23:50:37.719Z,23.60
2022-08-23T23:55:48.715Z,23.60
